createdAt,value
2018-09-13T00:01:31.576Z,4.87
2018-09-13T00:04:00.473Z,5.03
2018-09-13T00:06:29.338Z,6.27
2018-09-13T00:08:58.338Z,8.47
2018-09-13T00:11:27.306Z,7.53
2018-09-13T00:13:56.230Z,6.17
2018-09-13T00:16:25.144Z,6.63
2018-09-13T00:18:54.057Z,6.40
2018-09-13T00:21:22.992Z,8.93
2018-09-13T00:23:51.938Z,7.23
2018-09-13T00:26:20.801Z,9.47
2018-09-13T00:28:49.698Z,8.07
2018-09-13T00:31:18.618Z,7.03
2018-09-13T00:33:47.577Z,8.03
2018-09-13T00:36:16.434Z,7.27
2018-09-13T00:38:45.381Z,6.43
2018-09-13T00:41:14.268Z,7.33
2018-09-13T00:43:43.156Z,7.07
2018-09-13T00:46:12.064Z,8.60
2018-09-13T00:48:40.925Z,7.17
2018-09-13T00:51:10.042Z,9.90
2018-09-13T00:53:38.949Z,6.03
2018-09-13T00:56:07.808Z,7.03
2018-09-13T00:58:36.718Z,6.90
2018-09-13T01:01:05.724Z,7.07
2018-09-13T01:03:34.599Z,6.50
2018-09-13T01:06:03.481Z,6.83
2018-09-13T01:08:32.401Z,7.30
2018-09-13T01:11:01.350Z,7.20
2018-09-13T01:13:30.245Z,6.93
2018-09-13T01:15:59.192Z,7.93
2018-09-13T01:18:28.177Z,7.67
2018-09-13T01:20:57.060Z,8.30
2018-09-13T01:23:26.006Z,7.43
2018-09-13T01:25:54.884Z,8.97
2018-09-13T01:28:23.755Z,7.27
2018-09-13T01:30:52.732Z,7.40
2018-09-13T01:33:21.628Z,7.80
2018-09-13T01:35:50.513Z,6.67
2018-09-13T01:38:19.461Z,7.90
2018-09-13T01:40:48.404Z,6.90
2018-09-13T01:43:17.268Z,7.47
2018-09-13T01:45:46.181Z,7.17
2018-09-13T01:48:15.082Z,8.30
2018-09-13T01:50:43.957Z,8.60
2018-09-13T01:53:12.860Z,9.03
2018-09-13T01:55:41.771Z,8.57
2018-09-13T01:58:10.744Z,8.53
2018-09-13T02:00:39.680Z,8.13
2018-09-13T02:03:08.545Z,8.07
2018-09-13T02:05:37.434Z,10.07
2018-09-13T02:08:06.796Z,12.10
2018-09-13T02:10:35.682Z,8.33
2018-09-13T02:13:04.677Z,9.10
2018-09-13T02:15:33.660Z,10.20
2018-09-13T02:18:02.513Z,10.73
2018-09-13T02:20:31.388Z,8.00
2018-09-13T02:23:00.291Z,10.73
2018-09-13T02:25:29.144Z,9.10
2018-09-13T02:27:58.004Z,8.80
2018-09-13T02:30:26.942Z,8.93
2018-09-13T02:32:55.834Z,10.67
2018-09-13T02:35:24.730Z,14.10
2018-09-13T02:37:53.654Z,15.03
2018-09-13T02:40:22.545Z,9.80
2018-09-13T02:42:51.580Z,8.40
2018-09-13T02:45:20.546Z,8.07
2018-09-13T02:47:49.420Z,9.73
2018-09-13T02:50:18.301Z,12.07
2018-09-13T02:52:47.216Z,7.37
2018-09-13T02:55:16.111Z,9.47
2018-09-13T02:57:44.989Z,11.37
2018-09-13T03:00:13.919Z,11.70
2018-09-13T03:02:42.768Z,8.27
2018-09-13T03:05:11.668Z,7.87
2018-09-13T03:07:40.608Z,7.03
2018-09-13T03:10:09.566Z,9.90
2018-09-13T03:12:38.421Z,9.13
2018-09-13T03:15:08.065Z,6.57
2018-09-13T03:17:36.934Z,5.83
2018-09-13T03:20:05.804Z,6.00
2018-09-13T03:22:34.743Z,8.67
2018-09-13T03:25:03.616Z,6.50
2018-09-13T03:27:32.563Z,5.30
2018-09-13T03:30:01.593Z,6.63
2018-09-13T03:32:30.458Z,5.60
2018-09-13T03:34:59.356Z,5.40
2018-09-13T03:37:28.352Z,4.57
2018-09-13T03:39:57.275Z,5.00
2018-09-13T03:42:26.198Z,6.00
2018-09-13T03:44:55.869Z,5.93
2018-09-13T03:47:24.724Z,4.70
2018-09-13T03:49:53.693Z,5.03
2018-09-13T03:52:22.615Z,5.27
2018-09-13T03:54:51.480Z,7.27
2018-09-13T03:57:20.308Z,5.30
2018-09-13T03:59:49.188Z,6.63
2018-09-13T04:02:18.052Z,7.90
2018-09-13T04:04:46.881Z,8.90
2018-09-13T04:07:15.875Z,6.37
2018-09-13T04:09:44.695Z,7.30
2018-09-13T04:12:13.605Z,6.73
2018-09-13T04:14:42.486Z,7.57
2018-09-13T04:17:11.328Z,8.90
2018-09-13T04:19:43.781Z,6.80
2018-09-13T04:22:13.643Z,6.53
2018-09-13T04:24:43.208Z,6.73
2018-09-13T04:27:12.159Z,8.40
2018-09-13T04:29:41.538Z,9.47
2018-09-13T04:32:10.384Z,8.13
2018-09-13T04:34:39.777Z,6.67
2018-09-13T04:37:09.033Z,8.77
2018-09-13T04:39:37.899Z,9.53
2018-09-13T04:42:07.041Z,8.87
2018-09-13T04:44:35.905Z,10.70
2018-09-13T04:47:04.756Z,7.43
2018-09-13T04:49:33.638Z,7.10
2018-09-13T04:52:02.631Z,7.90
2018-09-13T04:54:31.633Z,7.73
2018-09-13T04:57:00.510Z,8.77
2018-09-13T04:59:30.212Z,6.37
2018-09-13T05:01:59.092Z,7.23
2018-09-13T05:04:27.964Z,7.67
2018-09-13T05:06:56.875Z,6.13
2018-09-13T05:09:25.751Z,6.73
2018-09-13T05:11:54.655Z,6.83
2018-09-13T05:14:23.548Z,9.30
2018-09-13T05:16:52.546Z,4.53
2018-09-13T05:19:21.485Z,11.23
2018-09-13T05:21:50.402Z,6.43
2018-09-13T05:24:19.572Z,5.77
2018-09-13T05:26:48.462Z,7.23
2018-09-13T05:29:17.319Z,4.77
2018-09-13T05:31:55.955Z,6.97
2018-09-13T05:34:27.763Z,7.60
2018-09-13T05:36:56.661Z,5.87
2018-09-13T05:39:25.485Z,8.17
2018-09-13T05:41:54.333Z,7.23
2018-09-13T05:44:23.303Z,8.63
2018-09-13T05:46:52.148Z,7.77
2018-09-13T05:49:21.030Z,8.87
2018-09-13T05:51:50.134Z,4.77
2018-09-13T05:54:18.977Z,8.50
2018-09-13T05:56:47.851Z,9.90
2018-09-13T05:59:16.757Z,6.53
2018-09-13T06:01:46.059Z,6.23
2018-09-13T06:04:14.888Z,8.57
2018-09-13T06:06:43.809Z,10.90
2018-09-13T06:09:12.639Z,8.10
2018-09-13T06:11:41.470Z,5.43
2018-09-13T06:14:10.361Z,8.13
2018-09-13T06:16:39.237Z,7.43
2018-09-13T06:19:08.173Z,8.90
2018-09-13T06:21:37.421Z,5.20
2018-09-13T06:24:06.725Z,5.07
2018-09-13T06:26:35.642Z,10.13
2018-09-13T06:29:04.742Z,6.10
2018-09-13T06:31:33.635Z,5.93
2018-09-13T06:34:02.548Z,7.07
2018-09-13T06:36:31.562Z,5.07
2018-09-13T06:39:00.481Z,9.30
2018-09-13T06:41:29.404Z,5.77
2018-09-13T06:43:58.534Z,5.10
2018-09-13T06:46:27.679Z,4.73
2018-09-13T06:49:31.932Z,4.93
2018-09-13T06:52:00.850Z,6.07
2018-09-13T06:54:29.830Z,5.93
2018-09-13T06:56:58.813Z,4.30
2018-09-13T06:59:27.757Z,4.50
2018-09-13T07:01:56.815Z,7.23
2018-09-13T07:04:25.772Z,4.97
2018-09-13T07:06:54.776Z,5.40
2018-09-13T07:09:23.692Z,7.80
2018-09-13T07:11:52.592Z,4.60
2018-09-13T07:14:21.495Z,7.67
2018-09-13T07:16:53.457Z,5.30
2018-09-13T07:19:22.460Z,6.77
2018-09-13T07:21:53.487Z,8.83
2018-09-13T07:24:22.485Z,8.10
2018-09-13T07:26:51.353Z,8.83
2018-09-13T07:29:20.375Z,8.13
2018-09-13T07:31:49.288Z,8.67
2018-09-13T07:34:18.209Z,7.13
2018-09-13T07:36:47.327Z,5.60
2018-09-13T07:39:16.347Z,8.27
2018-09-13T07:41:45.210Z,6.03
2018-09-13T07:44:14.334Z,5.27
2018-09-13T07:46:43.333Z,5.43
2018-09-13T07:49:12.280Z,8.10
2018-09-13T07:51:41.229Z,8.57
2018-09-13T07:54:10.130Z,9.37
2018-09-13T07:56:39.372Z,6.20
2018-09-13T07:59:08.554Z,6.93
2018-09-13T08:01:37.458Z,6.93
2018-09-13T08:04:06.456Z,6.47
2018-09-13T08:06:35.432Z,7.00
2018-09-13T08:09:06.998Z,6.37
2018-09-13T08:11:35.985Z,11.67
2018-09-13T08:14:04.916Z,5.67
2018-09-13T08:16:33.749Z,5.90
2018-09-13T08:19:02.754Z,7.10
2018-09-13T08:21:31.710Z,8.93
2018-09-13T08:24:00.708Z,6.93
2018-09-13T08:26:29.694Z,5.63
2018-09-13T08:28:58.516Z,5.03
2018-09-13T08:31:27.354Z,8.17
2018-09-13T08:33:56.335Z,4.30
2018-09-13T08:36:25.205Z,4.43
2018-09-13T08:38:54.050Z,6.07
2018-09-13T08:41:22.977Z,7.40
2018-09-13T08:43:51.821Z,8.97
2018-09-13T08:46:21.577Z,7.43
2018-09-13T08:48:51.683Z,5.73
2018-09-13T08:51:20.817Z,5.17
2018-09-13T08:53:49.652Z,5.67
2018-09-13T08:56:18.608Z,7.47
2018-09-13T08:58:47.548Z,7.27
2018-09-13T09:01:16.391Z,4.90
2018-09-13T09:03:45.287Z,5.53
2018-09-13T09:06:14.166Z,5.93
2018-09-13T09:08:43.028Z,6.70
2018-09-13T09:11:11.991Z,5.73
2018-09-13T09:13:40.904Z,7.23
2018-09-13T09:16:09.796Z,4.53
2018-09-13T09:18:38.724Z,4.83
2018-09-13T09:21:07.576Z,5.13
2018-09-13T09:23:36.451Z,7.63
2018-09-13T09:26:05.361Z,4.37
2018-09-13T09:28:34.217Z,5.13
2018-09-13T09:31:03.063Z,4.50
2018-09-13T09:33:31.947Z,6.73
2018-09-13T09:36:00.827Z,6.40
2018-09-13T09:38:29.655Z,4.47
2018-09-13T09:40:58.547Z,5.03
2018-09-13T09:43:27.385Z,8.50
2018-09-13T09:45:56.236Z,6.97
2018-09-13T09:48:25.148Z,4.30
2018-09-13T09:50:54.003Z,3.33
2018-09-13T09:53:23.539Z,4.47
2018-09-13T09:55:52.491Z,4.80
2018-09-13T09:58:21.366Z,5.10
2018-09-13T10:00:55.465Z,5.03
2018-09-13T10:03:24.388Z,5.13
2018-09-13T10:05:53.242Z,4.87
2018-09-13T10:08:23.059Z,6.23
2018-09-13T10:10:51.905Z,6.80
2018-09-13T10:13:20.767Z,2.53
2018-09-13T10:15:54.784Z,3.17
2018-09-13T10:18:29.004Z,2.67
2018-09-13T10:21:03.222Z,7.47
2018-09-13T10:25:40.577Z,6.50
2018-09-13T10:30:18.976Z,6.00
2018-09-13T10:32:52.920Z,3.90
2018-09-13T10:35:27.160Z,1.70
2018-09-13T10:38:01.201Z,7.40
2018-09-13T10:40:35.247Z,3.90
2018-09-13T10:43:09.417Z,3.20
2018-09-13T10:45:43.569Z,8.80
2018-09-13T10:48:33.160Z,3.53
2018-09-13T10:51:11.208Z,3.20
2018-09-13T10:53:44.318Z,5.73
2018-09-13T10:56:13.370Z,3.73
2018-09-13T10:58:42.685Z,3.37
2018-09-13T11:01:11.555Z,3.87
2018-09-13T11:03:40.476Z,4.80
2018-09-13T11:06:09.340Z,5.03
2018-09-13T11:08:38.195Z,4.13
2018-09-13T11:11:07.143Z,6.80
2018-09-13T11:15:42.739Z,6.60
2018-09-13T11:18:11.627Z,3.47
2018-09-13T11:20:40.472Z,5.20
2018-09-13T11:23:09.327Z,3.67
2018-09-13T11:25:38.219Z,3.33
2018-09-13T11:28:07.070Z,6.20
2018-09-13T11:30:36.001Z,4.73
2018-09-13T11:33:04.951Z,4.27
2018-09-13T11:35:33.808Z,3.90
2018-09-13T11:38:03.324Z,5.83
2018-09-13T11:40:32.445Z,4.47
2018-09-13T11:43:01.203Z,5.40
2018-09-13T11:45:30.056Z,3.37
2018-09-13T11:47:59.020Z,3.70
2018-09-13T11:50:27.897Z,5.50
2018-09-13T11:52:56.760Z,3.33
2018-09-13T11:55:25.685Z,5.23
2018-09-13T11:57:54.543Z,2.53
2018-09-13T12:00:23.460Z,2.70
2018-09-13T12:02:53.173Z,4.00
2018-09-13T12:05:22.008Z,3.60
2018-09-13T12:07:50.848Z,4.37
2018-09-13T12:10:19.727Z,2.97
2018-09-13T12:12:48.575Z,6.73
2018-09-13T12:15:17.426Z,4.53
2018-09-13T12:17:46.371Z,4.50
2018-09-13T12:20:15.230Z,4.20
2018-09-13T12:22:44.077Z,4.17
2018-09-13T12:25:13.010Z,5.60
2018-09-13T12:27:41.965Z,7.07
2018-09-13T12:30:10.817Z,5.53
2018-09-13T12:32:39.745Z,4.53
2018-09-13T12:35:08.602Z,5.13
2018-09-13T12:37:37.436Z,3.83
2018-09-13T12:40:07.491Z,4.03
2018-09-13T12:42:36.347Z,4.70
2018-09-13T12:45:05.236Z,5.07
2018-09-13T12:47:34.124Z,5.07
2018-09-13T12:50:03.131Z,5.77
2018-09-13T12:52:32.049Z,3.60
2018-09-13T12:55:00.946Z,8.00
2018-09-13T12:57:29.817Z,3.47
2018-09-13T12:59:58.660Z,4.90
2018-09-13T13:02:27.580Z,3.27
2018-09-13T13:04:56.421Z,2.90
2018-09-13T13:07:25.255Z,4.17
2018-09-13T13:09:54.127Z,4.70
2018-09-13T13:12:22.984Z,3.33
2018-09-13T13:14:51.824Z,3.23
2018-09-13T13:17:20.791Z,2.80
2018-09-13T13:19:49.637Z,6.00
2018-09-13T13:22:18.562Z,7.70
2018-09-13T13:24:47.479Z,4.37
2018-09-13T13:27:16.345Z,8.93
2018-09-13T13:29:45.176Z,3.63
2018-09-13T13:32:14.055Z,4.30
2018-09-13T13:34:47.902Z,4.27
2018-09-13T13:37:16.880Z,3.70
2018-09-13T13:39:46.240Z,2.03
2018-09-13T13:42:15.558Z,2.90
2018-09-13T13:44:44.573Z,4.50
2018-09-13T13:47:13.469Z,7.10
2018-09-13T13:49:42.411Z,3.17
2018-09-13T13:52:11.349Z,5.97
2018-09-13T13:54:40.196Z,6.17
2018-09-13T13:57:09.064Z,4.30
2018-09-13T13:59:37.951Z,5.47
2018-09-13T14:02:06.884Z,4.90
2018-09-13T14:04:35.892Z,2.73
2018-09-13T14:07:04.803Z,2.67
2018-09-13T14:09:33.686Z,12.13
2018-09-13T14:12:02.553Z,2.47
2018-09-13T14:14:32.274Z,4.07
2018-09-13T14:17:01.125Z,4.40
2018-09-13T14:19:29.983Z,3.10
2018-09-13T14:21:58.891Z,2.30
2018-09-13T14:24:27.718Z,2.37
2018-09-13T14:26:56.597Z,2.33
2018-09-13T14:29:25.457Z,3.53
2018-09-13T14:31:54.305Z,3.40
2018-09-13T14:34:23.140Z,2.03
2018-09-13T14:36:52.032Z,2.80
2018-09-13T14:39:20.894Z,3.77
2018-09-13T14:41:49.747Z,3.40
2018-09-13T14:44:18.644Z,8.73
2018-09-13T14:46:47.627Z,7.70
2018-09-13T14:49:16.455Z,2.50
2018-09-13T14:51:45.328Z,2.20
2018-09-13T14:54:14.193Z,5.27
2018-09-13T14:56:43.052Z,5.63
2018-09-13T14:59:12.041Z,2.40
2018-09-13T15:01:40.892Z,4.80
2018-09-13T15:04:09.748Z,5.57
2018-09-13T15:06:38.777Z,5.67
2018-09-13T15:09:10.619Z,6.20
2018-09-13T15:11:39.517Z,4.10
2018-09-13T15:14:08.336Z,2.53
2018-09-13T15:16:37.200Z,6.93
2018-09-13T15:19:06.143Z,3.97
2018-09-13T15:21:35.035Z,4.53
2018-09-13T15:24:03.885Z,3.10
2018-09-13T15:26:33.401Z,6.53
2018-09-13T15:29:02.268Z,5.70
2018-09-13T15:31:31.152Z,3.47
2018-09-13T15:34:00.103Z,2.67
2018-09-13T15:36:28.960Z,3.30
2018-09-13T15:38:57.810Z,2.83
2018-09-13T15:41:26.723Z,4.67
2018-09-13T15:43:55.659Z,3.53
2018-09-13T15:46:24.538Z,3.63
2018-09-13T15:48:53.442Z,3.63
2018-09-13T15:51:22.279Z,4.60
2018-09-13T15:53:51.121Z,4.90
2018-09-13T15:56:20.094Z,4.10
2018-09-13T15:58:49.058Z,3.03
2018-09-13T16:01:17.901Z,2.47
2018-09-13T16:03:46.966Z,2.90
2018-09-13T16:06:15.838Z,4.47
2018-09-13T16:08:44.735Z,3.57
2018-09-13T16:11:13.648Z,3.87
2018-09-13T16:13:42.497Z,4.67
2018-09-13T16:16:11.304Z,7.03
2018-09-13T16:18:40.179Z,2.70
2018-09-13T16:21:09.190Z,3.33
2018-09-13T16:23:38.021Z,7.67
2018-09-13T16:26:06.971Z,6.77
2018-09-13T16:28:35.854Z,5.63
2018-09-13T16:31:04.688Z,5.47
2018-09-13T16:33:34.420Z,5.30
2018-09-13T16:36:03.241Z,2.87
2018-09-13T16:38:37.506Z,3.80
2018-09-13T16:41:11.462Z,5.57
2018-09-13T16:43:45.530Z,8.83
2018-09-13T16:46:20.182Z,4.13
2018-09-13T16:48:49.097Z,8.43
2018-09-13T16:51:17.957Z,8.70
2018-09-13T16:53:46.784Z,9.57
2018-09-13T16:56:15.783Z,10.13
2018-09-13T16:58:44.633Z,11.03
2018-09-13T17:01:13.482Z,12.80
2018-09-13T17:03:42.412Z,12.70
2018-09-13T17:06:11.247Z,10.17
2018-09-13T17:08:40.984Z,12.97
2018-09-13T17:11:09.956Z,9.70
2018-09-13T17:13:38.857Z,11.90
2018-09-13T17:16:07.748Z,15.40
2018-09-13T17:18:36.678Z,12.03
2018-09-13T17:21:05.500Z,9.87
2018-09-13T17:23:34.466Z,14.03
2018-09-13T17:26:03.398Z,15.50
2018-09-13T17:28:32.261Z,9.83
2018-09-13T17:31:01.209Z,9.07
2018-09-13T17:33:30.188Z,9.87
2018-09-13T17:35:59.279Z,9.80
2018-09-13T17:38:28.151Z,10.03
2018-09-13T17:40:57.024Z,8.03
2018-09-13T17:43:25.996Z,10.43
2018-09-13T17:45:54.923Z,7.40
2018-09-13T17:48:25.620Z,8.93
2018-09-13T17:50:54.685Z,6.87
2018-09-13T17:53:23.561Z,9.20
2018-09-13T17:55:52.609Z,8.77
2018-09-13T17:58:21.530Z,10.33
2018-09-13T18:00:51.660Z,9.83
2018-09-13T18:03:20.611Z,9.07
2018-09-13T18:05:49.583Z,12.00
2018-09-13T18:08:18.451Z,7.73
2018-09-13T18:10:47.307Z,15.77
2018-09-13T18:13:16.200Z,10.63
2018-09-13T18:15:45.185Z,14.50
2018-09-13T18:18:14.018Z,11.50
2018-09-13T18:20:42.900Z,13.20
2018-09-13T18:23:11.992Z,14.13
2018-09-13T18:25:40.977Z,12.13
2018-09-13T18:28:09.831Z,12.43
2018-09-13T18:30:38.708Z,14.47
2018-09-13T18:33:07.591Z,14.63
2018-09-13T18:35:36.468Z,13.27
2018-09-13T18:38:05.300Z,12.87
2018-09-13T18:40:34.277Z,14.63
2018-09-13T18:43:03.148Z,14.60
2018-09-13T18:45:32.135Z,13.67
2018-09-13T18:48:01.062Z,11.17
2018-09-13T18:50:29.912Z,14.67
2018-09-13T18:52:58.964Z,12.90
2018-09-13T18:55:27.827Z,19.27
2018-09-13T18:57:56.674Z,18.20
2018-09-13T19:00:25.624Z,17.80
2018-09-13T19:02:54.493Z,16.43
2018-09-13T19:05:23.404Z,15.87
2018-09-13T19:07:52.393Z,19.90
2018-09-13T19:10:21.256Z,15.30
2018-09-13T19:12:50.083Z,18.70
2018-09-13T19:15:18.969Z,20.67
2018-09-13T19:17:47.907Z,16.83
2018-09-13T19:20:16.763Z,17.30
2018-09-13T19:22:45.761Z,15.23
2018-09-13T19:25:14.632Z,12.93
2018-09-13T19:27:43.476Z,13.33
2018-09-13T19:30:16.586Z,19.63
2018-09-13T19:32:45.627Z,18.90
2018-09-13T19:35:14.565Z,14.93
2018-09-13T19:37:43.968Z,15.30
2018-09-13T19:40:13.684Z,13.77
2018-09-13T19:42:42.730Z,16.83
2018-09-13T19:45:11.691Z,13.77
2018-09-13T19:47:40.584Z,14.53
2018-09-13T19:50:09.584Z,11.57
2018-09-13T19:52:38.532Z,16.70
2018-09-13T19:55:08.289Z,12.73
2018-09-13T19:57:37.184Z,14.03
2018-09-13T20:00:06.647Z,14.37
2018-09-13T20:02:35.561Z,14.10
2018-09-13T20:05:04.529Z,18.17
2018-09-13T20:07:33.400Z,13.40
2018-09-13T20:10:02.397Z,19.93
2018-09-13T20:12:31.313Z,14.50
2018-09-13T20:15:01.071Z,11.90
2018-09-13T20:17:29.942Z,13.20
2018-09-13T20:19:58.849Z,14.47
2018-09-13T20:22:27.842Z,15.60
2018-09-13T20:24:56.836Z,10.67
2018-09-13T20:27:26.025Z,13.17
2018-09-13T20:29:55.033Z,10.17
2018-09-13T20:32:23.935Z,11.37
2018-09-13T20:34:53.569Z,10.13
2018-09-13T20:37:22.483Z,12.80
2018-09-13T20:39:51.400Z,14.73
2018-09-13T20:42:20.419Z,9.63
2018-09-13T20:44:49.444Z,12.67
2018-09-13T20:47:18.431Z,11.83
2018-09-13T20:49:47.365Z,12.20
2018-09-13T20:52:16.490Z,10.53
2018-09-13T20:54:48.091Z,11.53
2018-09-13T20:57:17.248Z,16.30
2018-09-13T20:59:46.128Z,8.27
2018-09-13T21:02:15.126Z,12.37
2018-09-13T21:04:44.142Z,7.37
2018-09-13T21:07:13.057Z,11.63
2018-09-13T21:09:42.130Z,10.57
2018-09-13T21:12:11.232Z,8.57
2018-09-13T21:14:40.282Z,12.43
2018-09-13T21:17:09.381Z,11.03
2018-09-13T21:19:38.251Z,13.33
2018-09-13T21:22:08.140Z,9.20
2018-09-13T21:24:37.044Z,12.53
2018-09-13T21:27:06.140Z,15.77
2018-09-13T21:29:35.275Z,8.10
2018-09-13T21:32:04.236Z,8.70
2018-09-13T21:34:33.124Z,15.70
2018-09-13T21:37:02.019Z,10.07
2018-09-13T21:39:30.963Z,14.17
2018-09-13T21:41:59.936Z,9.20
2018-09-13T21:44:28.899Z,11.63
2018-09-13T21:47:00.489Z,11.90
2018-09-13T21:49:29.413Z,9.90
2018-09-13T21:51:58.293Z,12.53
2018-09-13T21:54:27.177Z,9.13
2018-09-13T21:56:56.226Z,10.77
2018-09-13T21:59:25.115Z,9.37
2018-09-13T22:01:54.057Z,6.97
2018-09-13T22:04:22.995Z,7.93
2018-09-13T22:06:51.850Z,9.37
2018-09-13T22:09:20.709Z,7.77
2018-09-13T22:11:49.645Z,9.13
2018-09-13T22:14:18.555Z,10.37
2018-09-13T22:16:47.516Z,7.30
2018-09-13T22:19:16.538Z,8.33
2018-09-13T22:21:45.387Z,9.37
2018-09-13T22:24:14.222Z,7.77
2018-09-13T22:26:43.141Z,10.97
2018-09-13T22:29:12.086Z,10.70
2018-09-13T22:31:40.963Z,14.90
2018-09-13T22:34:09.887Z,10.43
2018-09-13T22:36:38.762Z,8.93
2018-09-13T22:39:09.752Z,9.63
2018-09-13T22:41:39.143Z,9.80
2018-09-13T22:44:08.211Z,12.10
2018-09-13T22:46:37.119Z,12.33
2018-09-13T22:49:06.156Z,12.47
2018-09-13T22:51:35.031Z,10.93
2018-09-13T22:54:03.948Z,13.50
2018-09-13T22:56:32.861Z,12.77
2018-09-13T22:59:01.797Z,10.77
2018-09-13T23:01:30.704Z,9.30
2018-09-13T23:03:59.566Z,7.87
2018-09-13T23:06:28.447Z,10.67
2018-09-13T23:08:57.399Z,8.57
2018-09-13T23:11:26.253Z,9.83
2018-09-13T23:13:55.163Z,8.63
2018-09-13T23:16:24.123Z,10.40
2018-09-13T23:18:52.988Z,7.87
2018-09-13T23:21:21.901Z,8.10
2018-09-13T23:23:50.800Z,10.07
2018-09-13T23:26:19.664Z,11.40
2018-09-13T23:28:48.528Z,8.23
2018-09-13T23:31:17.534Z,10.37
2018-09-13T23:33:46.402Z,9.13
2018-09-13T23:36:15.254Z,10.37
2018-09-13T23:38:44.280Z,8.87
2018-09-13T23:41:13.223Z,8.73
2018-09-13T23:43:42.084Z,10.60
2018-09-13T23:46:11.061Z,7.33
2018-09-13T23:48:39.908Z,12.87
2018-09-13T23:51:09.070Z,9.43
2018-09-13T23:53:37.979Z,12.53
2018-09-13T23:56:06.950Z,11.00
2018-09-13T23:58:35.820Z,10.10
